createdAt,value
2018-02-22T00:00:49.088Z,0.20
2018-02-22T00:03:17.198Z,0.20
2018-02-22T00:05:46.105Z,0.20
2018-02-22T00:08:14.226Z,0.10
2018-02-22T00:10:42.376Z,0.20
2018-02-22T00:13:10.502Z,0.20
2018-02-22T00:15:39.409Z,0.10
2018-02-22T00:18:07.532Z,0.10
2018-02-22T00:20:35.676Z,0.10
2018-02-22T00:23:03.792Z,0.00
2018-02-22T00:25:31.940Z,0.10
2018-02-22T00:28:00.143Z,0.10
2018-02-22T00:30:28.279Z,0.10
2018-02-22T00:32:56.429Z,-0.10
2018-02-22T00:35:24.573Z,-0.20
2018-02-22T00:37:52.692Z,-0.10
2018-02-22T00:40:20.851Z,-0.10
2018-02-22T00:42:48.977Z,-0.20
2018-02-22T00:45:18.016Z,-0.20
2018-02-22T00:47:46.141Z,-0.30
2018-02-22T00:50:14.297Z,-0.20
2018-02-22T00:52:42.417Z,-0.30
2018-02-22T00:55:11.329Z,-0.20
2018-02-22T00:57:39.456Z,-0.30
2018-02-22T01:00:07.602Z,-0.30
2018-02-22T01:02:35.725Z,-0.30
2018-02-22T01:05:04.644Z,-0.50
2018-02-22T01:07:33.151Z,-0.50
2018-02-22T01:10:01.298Z,-0.40
2018-02-22T01:12:29.425Z,-0.50
2018-02-22T01:14:59.043Z,-0.40
2018-02-22T01:17:27.193Z,-0.20
2018-02-22T01:19:55.799Z,-0.20
2018-02-22T01:22:25.077Z,0.00
2018-02-22T01:24:53.219Z,-0.10
2018-02-22T01:27:21.684Z,-0.30
2018-02-22T01:29:49.827Z,-0.40
2018-02-22T01:32:17.944Z,-0.40
2018-02-22T01:34:46.102Z,-0.60
2018-02-22T01:37:14.224Z,-0.50
2018-02-22T01:39:42.381Z,-0.50
2018-02-22T01:42:10.508Z,-0.50
2018-02-22T01:44:39.417Z,-0.50
2018-02-22T01:47:07.546Z,-0.60
2018-02-22T01:49:35.700Z,-0.60
2018-02-22T01:52:03.832Z,-0.60
2018-02-22T01:54:31.989Z,-0.60
2018-02-22T01:57:00.888Z,-0.60
2018-02-22T01:59:29.816Z,-0.70
2018-02-22T02:01:57.946Z,-0.70
2018-02-22T02:04:26.870Z,-0.60
2018-02-22T02:06:55.212Z,-0.60
2018-02-22T02:09:25.563Z,-0.70
2018-02-22T02:11:55.026Z,-0.80
2018-02-22T02:14:23.833Z,-0.70
2018-02-22T02:16:52.749Z,-0.70
2018-02-22T02:19:20.909Z,-0.80
2018-02-22T02:21:49.800Z,-0.70
2018-02-22T02:24:18.698Z,-0.60
2018-02-22T02:26:46.853Z,-0.60
2018-02-22T02:29:15.745Z,-0.60
2018-02-22T02:31:45.036Z,-0.70
2018-02-22T02:34:13.784Z,-0.70
2018-02-22T02:36:41.933Z,-0.60
2018-02-22T02:39:10.067Z,-0.70
2018-02-22T02:41:38.990Z,-0.80
2018-02-22T02:44:07.107Z,-0.80
2018-02-22T02:46:35.262Z,-0.80
2018-02-22T02:49:04.636Z,-0.60
2018-02-22T02:51:32.794Z,-0.70
2018-02-22T02:54:01.689Z,-0.80
2018-02-22T02:56:30.592Z,-0.80
2018-02-22T02:58:58.733Z,-0.80
2018-02-22T03:01:27.347Z,-0.80
2018-02-22T03:03:56.677Z,-0.80
2018-02-22T03:06:24.882Z,-0.80
2018-02-22T03:08:54.017Z,-0.80
2018-02-22T03:11:22.925Z,-1.00
2018-02-22T03:13:52.566Z,-1.00
2018-02-22T03:16:20.712Z,-1.00
2018-02-22T03:18:49.244Z,-1.00
2018-02-22T03:21:17.392Z,-0.90
2018-02-22T03:23:45.517Z,-1.00
2018-02-22T03:26:14.435Z,-1.10
2018-02-22T03:28:42.585Z,-1.20
2018-02-22T03:31:11.503Z,-1.10
2018-02-22T03:33:39.641Z,-1.10
2018-02-22T03:36:08.593Z,-1.10
2018-02-22T03:38:36.714Z,-1.20
2018-02-22T03:41:07.157Z,-1.00
2018-02-22T03:43:35.300Z,-1.00
2018-02-22T03:46:03.463Z,-1.00
2018-02-22T03:48:31.613Z,-1.00
2018-02-22T03:50:59.785Z,-1.00
2018-02-22T03:53:27.900Z,-0.60
2018-02-22T03:55:56.812Z,-1.30
2018-02-22T03:58:28.101Z,-1.30
2018-02-22T04:00:56.241Z,-1.30
2018-02-22T04:03:24.361Z,-1.40
2018-02-22T04:05:52.513Z,-1.40
2018-02-22T04:08:20.690Z,-1.40
2018-02-22T04:10:49.189Z,-1.40
2018-02-22T04:13:17.325Z,-1.50
2018-02-22T04:15:45.469Z,-1.60
2018-02-22T04:18:14.358Z,-1.40
2018-02-22T04:20:42.528Z,-1.40
2018-02-22T04:23:11.433Z,-1.40
2018-02-22T04:25:39.576Z,-1.40
2018-02-22T04:28:07.703Z,-1.40
2018-02-22T04:30:35.858Z,-1.30
2018-02-22T04:33:04.044Z,-1.40
2018-02-22T04:35:34.424Z,-1.20
2018-02-22T04:38:02.548Z,-1.10
2018-02-22T04:40:30.693Z,-1.10
2018-02-22T04:42:59.605Z,-1.00
2018-02-22T04:45:27.749Z,-1.00
2018-02-22T04:47:56.647Z,-1.00
2018-02-22T04:50:25.570Z,-0.80
2018-02-22T04:52:53.720Z,-0.80
2018-02-22T04:55:21.868Z,-0.90
2018-02-22T04:57:50.001Z,-1.00
2018-02-22T05:00:18.148Z,-0.90
2018-02-22T05:02:46.269Z,-1.00
2018-02-22T05:05:16.069Z,-0.90
2018-02-22T05:07:44.576Z,-0.90
2018-02-22T05:10:12.729Z,-1.00
2018-02-22T05:12:40.854Z,-0.90
2018-02-22T05:15:08.993Z,-1.00
2018-02-22T05:17:37.148Z,-1.10
2018-02-22T05:20:05.773Z,-1.20
2018-02-22T05:22:34.730Z,-1.20
2018-02-22T05:25:02.857Z,-1.20
2018-02-22T05:27:32.235Z,-1.20
2018-02-22T05:30:00.809Z,-1.30
2018-02-22T05:32:28.984Z,-1.40
2018-02-22T05:34:57.888Z,-1.30
2018-02-22T05:37:30.175Z,-1.50
2018-02-22T05:39:58.296Z,-1.50
2018-02-22T05:42:28.478Z,-1.70
2018-02-22T05:44:56.596Z,-1.70
2018-02-22T05:47:25.777Z,-1.70
2018-02-22T05:49:53.901Z,-1.80
2018-02-22T05:52:22.814Z,-1.90
2018-02-22T05:54:50.941Z,-1.90
2018-02-22T05:57:19.644Z,-1.90
2018-02-22T05:59:48.564Z,-1.90
2018-02-22T06:02:16.730Z,-1.90
2018-02-22T06:04:44.884Z,-1.80
2018-02-22T06:07:13.832Z,-1.60
2018-02-22T06:09:41.959Z,-1.60
2018-02-22T06:12:10.882Z,-1.70
2018-02-22T06:14:38.996Z,-1.70
2018-02-22T06:17:07.165Z,-1.60
2018-02-22T06:19:36.014Z,-1.70
2018-02-22T06:22:04.706Z,-1.80
2018-02-22T06:24:32.834Z,-1.90
2018-02-22T06:27:03.809Z,-1.70
2018-02-22T06:29:38.856Z,-1.60
2018-02-22T06:32:07.126Z,-1.70
2018-02-22T06:34:38.684Z,-1.60
2018-02-22T06:37:06.905Z,-1.70
2018-02-22T06:39:35.060Z,-1.50
2018-02-22T06:42:03.211Z,-1.40
2018-02-22T06:44:31.337Z,-1.30
2018-02-22T06:47:00.272Z,-1.10
2018-02-22T06:49:28.395Z,-1.10
2018-02-22T06:51:57.313Z,-0.70
2018-02-22T06:54:25.448Z,-0.80
2018-02-22T06:56:53.595Z,-0.70
2018-02-22T06:59:21.712Z,-0.60
2018-02-22T07:01:50.622Z,-0.40
2018-02-22T07:04:18.735Z,-0.40
2018-02-22T07:06:46.956Z,-0.20
2018-02-22T07:09:15.841Z,0.00
2018-02-22T07:11:44.755Z,0.10
2018-02-22T07:14:12.864Z,0.10
2018-02-22T07:16:41.099Z,0.10
2018-02-22T07:19:09.241Z,0.20
2018-02-22T07:21:37.780Z,0.50
2018-02-22T07:24:06.921Z,0.60
2018-02-22T07:26:35.601Z,0.70
2018-02-22T07:29:03.716Z,0.60
2018-02-22T07:31:32.708Z,0.80
2018-02-22T07:34:00.836Z,0.80
2018-02-22T07:36:29.016Z,0.90
2018-02-22T07:38:58.672Z,1.10
2018-02-22T07:41:27.708Z,1.10
2018-02-22T07:43:55.840Z,1.30
2018-02-22T07:46:25.535Z,1.30
2018-02-22T07:48:53.644Z,1.70
2018-02-22T07:51:21.792Z,1.80
2018-02-22T07:53:49.923Z,1.90
2018-02-22T07:56:18.520Z,1.70
2018-02-22T07:58:48.022Z,1.80
2018-02-22T08:01:16.948Z,1.70
2018-02-22T08:03:45.227Z,1.70
2018-02-22T08:06:15.034Z,1.90
2018-02-22T08:08:44.797Z,1.90
2018-02-22T08:11:14.657Z,1.80
2018-02-22T08:13:43.962Z,1.90
2018-02-22T08:16:12.469Z,2.00
2018-02-22T08:18:41.545Z,2.30
2018-02-22T08:21:13.704Z,2.30
2018-02-22T08:23:42.172Z,2.40
2018-02-22T08:26:10.570Z,2.60
2018-02-22T08:28:39.764Z,2.70
2018-02-22T08:31:10.565Z,3.00
2018-02-22T08:33:39.477Z,3.20
2018-02-22T08:36:07.604Z,3.10
2018-02-22T08:38:35.755Z,3.50
2018-02-22T08:41:03.878Z,3.80
2018-02-22T08:43:32.334Z,4.30
2018-02-22T08:46:00.454Z,4.40
2018-02-22T08:48:29.372Z,4.80
2018-02-22T08:50:57.496Z,4.70
2018-02-22T08:53:25.645Z,5.90
2018-02-22T08:55:53.762Z,7.60
2018-02-22T08:58:22.670Z,8.00
2018-02-22T09:00:51.337Z,7.90
2018-02-22T09:03:20.236Z,6.80
2018-02-22T09:05:48.351Z,6.80
2018-02-22T09:08:17.189Z,6.30
2018-02-22T09:10:46.066Z,5.80
2018-02-22T09:13:15.905Z,5.50
2018-02-22T09:15:44.038Z,5.50
2018-02-22T09:18:12.191Z,5.70
2018-02-22T09:20:40.310Z,6.40
2018-02-22T09:23:09.217Z,6.10
2018-02-22T09:25:37.324Z,6.10
2018-02-22T09:28:05.461Z,5.90
2018-02-22T09:30:33.567Z,5.90
2018-02-22T09:33:01.713Z,5.70
2018-02-22T09:35:29.823Z,5.60
2018-02-22T09:37:57.965Z,5.50
2018-02-22T09:40:26.082Z,6.10
2018-02-22T09:42:54.225Z,6.10
2018-02-22T09:45:22.345Z,5.80
2018-02-22T09:47:50.498Z,5.30
2018-02-22T09:50:18.665Z,5.00
2018-02-22T09:52:46.801Z,4.60
2018-02-22T09:55:14.937Z,4.40
2018-02-22T09:57:43.085Z,4.20
2018-02-22T10:00:11.221Z,4.30
2018-02-22T10:02:39.357Z,4.60
2018-02-22T10:05:07.468Z,4.50
2018-02-22T10:07:35.755Z,4.40
2018-02-22T10:10:04.065Z,4.20
2018-02-22T10:12:36.248Z,4.10
2018-02-22T10:15:04.627Z,4.00
2018-02-22T10:17:32.765Z,3.90
2018-02-22T10:20:00.897Z,3.80
2018-02-22T10:22:29.796Z,4.00
2018-02-22T10:24:57.928Z,4.00
2018-02-22T10:27:26.069Z,4.20
2018-02-22T10:29:54.194Z,4.20
2018-02-22T10:32:22.379Z,4.10
2018-02-22T10:34:51.276Z,3.90
2018-02-22T10:37:20.182Z,3.80
2018-02-22T10:39:48.306Z,3.80
2018-02-22T10:42:16.443Z,3.70
2018-02-22T10:44:44.616Z,3.50
2018-02-22T10:47:13.500Z,3.30
2018-02-22T10:49:41.608Z,3.30
2018-02-22T10:52:09.752Z,3.30
2018-02-22T10:54:37.885Z,3.00
2018-02-22T10:57:06.046Z,3.10
2018-02-22T10:59:34.159Z,2.90
2018-02-22T11:02:08.533Z,2.70
2018-02-22T11:04:37.251Z,2.60
2018-02-22T11:07:06.131Z,2.70
2018-02-22T11:09:35.041Z,2.70
2018-02-22T11:12:03.162Z,2.70
2018-02-22T11:14:31.304Z,2.70
2018-02-22T11:16:59.423Z,2.80
2018-02-22T11:19:27.556Z,3.00
2018-02-22T11:21:55.675Z,3.00
2018-02-22T11:24:23.821Z,3.10
2018-02-22T11:26:52.710Z,3.20
2018-02-22T11:29:20.858Z,3.10
2018-02-22T11:31:48.973Z,3.40
2018-02-22T11:34:17.795Z,3.70
2018-02-22T11:36:45.890Z,3.70
2018-02-22T11:39:14.032Z,3.60
2018-02-22T11:41:42.199Z,3.30
2018-02-22T11:44:10.337Z,3.40
2018-02-22T11:46:38.452Z,3.50
2018-02-22T11:49:06.592Z,3.50
2018-02-22T11:51:34.712Z,3.30
2018-02-22T11:54:03.615Z,3.10
2018-02-22T11:56:31.730Z,3.10
2018-02-22T11:58:59.860Z,3.00
2018-02-22T12:01:27.969Z,3.00
2018-02-22T12:03:56.113Z,2.90
2018-02-22T12:06:24.229Z,2.80
2018-02-22T12:08:52.360Z,2.70
2018-02-22T12:11:20.488Z,2.60
2018-02-22T12:13:49.508Z,2.70
2018-02-22T12:16:18.657Z,3.00
2018-02-22T12:18:46.798Z,3.10
2018-02-22T12:21:14.910Z,3.30
2018-02-22T12:23:43.041Z,3.70
2018-02-22T12:26:11.160Z,4.00
2018-02-22T12:28:39.306Z,4.00
2018-02-22T12:31:07.997Z,3.90
2018-02-22T12:33:36.149Z,3.90
2018-02-22T12:36:04.275Z,3.70
2018-02-22T12:38:32.421Z,3.70
2018-02-22T12:41:00.528Z,3.70
2018-02-22T12:43:28.674Z,3.60
2018-02-22T12:45:56.874Z,3.40
2018-02-22T12:48:25.013Z,3.30
2018-02-22T12:50:53.125Z,3.10
2018-02-22T12:53:21.269Z,3.00
2018-02-22T12:55:49.385Z,3.20
2018-02-22T12:58:18.298Z,3.50
2018-02-22T13:00:46.417Z,3.50
2018-02-22T13:03:14.558Z,3.60
2018-02-22T13:05:42.681Z,3.70
2018-02-22T13:08:10.828Z,3.80
2018-02-22T13:10:38.947Z,3.90
2018-02-22T13:13:07.853Z,3.90
2018-02-22T13:15:35.973Z,3.90
2018-02-22T13:18:04.117Z,3.80
2018-02-22T13:20:32.253Z,3.80
2018-02-22T13:23:01.169Z,3.90
2018-02-22T13:25:29.288Z,3.80
2018-02-22T13:27:57.429Z,3.70
2018-02-22T13:30:25.582Z,3.60
2018-02-22T13:33:05.606Z,3.50
2018-02-22T13:35:33.717Z,3.50
2018-02-22T13:38:16.703Z,3.30
2018-02-22T13:40:45.590Z,3.20
2018-02-22T13:43:13.735Z,3.20
2018-02-22T13:45:43.493Z,3.30
2018-02-22T13:48:11.641Z,3.30
2018-02-22T13:50:51.562Z,3.20
2018-02-22T13:53:20.172Z,3.20
2018-02-22T13:55:48.292Z,3.20
2018-02-22T13:58:16.435Z,3.20
2018-02-22T14:00:57.068Z,3.20
2018-02-22T14:03:25.199Z,3.20
2018-02-22T14:05:53.836Z,3.10
2018-02-22T14:08:33.687Z,3.10
2018-02-22T14:11:01.802Z,3.10
2018-02-22T14:13:29.946Z,3.10
2018-02-22T14:15:58.841Z,3.30
2018-02-22T14:18:26.968Z,3.30
2018-02-22T14:20:55.110Z,3.30
2018-02-22T14:23:23.223Z,3.30
2018-02-22T14:25:51.355Z,3.30
2018-02-22T14:28:19.523Z,3.40
2018-02-22T14:30:47.983Z,3.40
2018-02-22T14:33:16.102Z,3.50
2018-02-22T14:35:44.245Z,3.40
2018-02-22T14:38:13.129Z,3.40
2018-02-22T14:40:42.037Z,3.50
2018-02-22T14:43:10.154Z,3.50
2018-02-22T14:45:38.291Z,3.50
2018-02-22T14:48:06.410Z,3.60
2018-02-22T14:50:34.621Z,3.60
2018-02-22T14:53:03.505Z,3.70
2018-02-22T14:55:32.428Z,3.80
2018-02-22T14:58:00.540Z,3.80
2018-02-22T15:00:28.722Z,4.00
2018-02-22T15:02:56.901Z,4.00
2018-02-22T15:05:25.032Z,4.00
2018-02-22T15:07:53.161Z,4.00
2018-02-22T15:10:22.073Z,3.90
2018-02-22T15:12:50.184Z,3.90
2018-02-22T15:15:18.330Z,3.80
2018-02-22T15:17:46.474Z,3.80
2018-02-22T15:20:15.385Z,3.60
2018-02-22T15:22:44.020Z,3.60
2018-02-22T15:25:12.168Z,3.60
2018-02-22T15:27:40.313Z,3.60
2018-02-22T15:30:08.452Z,3.60
2018-02-22T15:32:36.568Z,3.50
2018-02-22T15:35:04.704Z,3.40
2018-02-22T15:37:32.825Z,3.40
2018-02-22T15:40:00.965Z,3.40
2018-02-22T15:42:29.849Z,3.40
2018-02-22T15:44:57.984Z,3.40
2018-02-22T15:47:26.146Z,3.20
2018-02-22T15:49:54.269Z,3.00
2018-02-22T15:52:22.420Z,3.00
2018-02-22T15:54:50.548Z,2.90
2018-02-22T15:57:18.685Z,2.90
2018-02-22T15:59:46.795Z,3.00
2018-02-22T16:02:14.933Z,3.00
2018-02-22T16:04:43.050Z,3.10
2018-02-22T16:07:11.553Z,3.10
2018-02-22T16:09:39.768Z,3.10
2018-02-22T16:12:07.913Z,3.00
2018-02-22T16:14:36.082Z,3.10
2018-02-22T16:17:05.014Z,3.20
2018-02-22T16:19:33.900Z,3.00
2018-02-22T16:22:02.038Z,3.00
2018-02-22T16:24:30.988Z,3.00
2018-02-22T16:26:59.147Z,2.90
2018-02-22T16:29:28.039Z,3.30
2018-02-22T16:31:56.937Z,3.50
2018-02-22T16:34:25.817Z,3.50
2018-02-22T16:36:54.733Z,3.60
2018-02-22T16:39:22.849Z,3.60
2018-02-22T16:41:51.149Z,3.60
2018-02-22T16:44:19.341Z,3.60
2018-02-22T16:46:47.553Z,3.70
2018-02-22T16:49:17.127Z,3.60
2018-02-22T16:51:45.305Z,3.50
2018-02-22T16:54:14.564Z,3.60
2018-02-22T16:56:42.978Z,3.60
2018-02-22T16:59:11.424Z,3.50
2018-02-22T17:01:39.718Z,3.30
2018-02-22T17:04:07.845Z,3.20
2018-02-22T17:06:36.898Z,3.40
2018-02-22T17:09:05.920Z,3.30
2018-02-22T17:11:34.573Z,3.20
2018-02-22T17:14:03.969Z,3.20
2018-02-22T17:16:32.702Z,3.00
2018-02-22T17:19:02.313Z,2.80
2018-02-22T17:21:30.735Z,2.90
2018-02-22T17:23:59.796Z,3.30
2018-02-22T17:26:33.660Z,3.30
2018-02-22T17:29:07.413Z,3.10
2018-02-22T17:31:41.303Z,3.00
2018-02-22T17:34:09.508Z,2.90
2018-02-22T17:36:39.255Z,2.80
2018-02-22T17:39:08.038Z,2.70
2018-02-22T17:41:39.645Z,2.50
2018-02-22T17:44:11.114Z,2.60
2018-02-22T17:46:39.384Z,2.60
2018-02-22T17:49:08.590Z,2.50
2018-02-22T17:51:36.728Z,2.40
2018-02-22T17:54:05.982Z,2.60
2018-02-22T17:56:34.097Z,2.90
2018-02-22T17:59:02.742Z,2.70
2018-02-22T18:01:30.861Z,2.70
2018-02-22T18:03:59.030Z,2.60
2018-02-22T18:06:27.572Z,2.60
2018-02-22T18:08:55.717Z,2.50
2018-02-22T18:11:23.837Z,2.70
2018-02-22T18:13:52.816Z,3.00
2018-02-22T18:16:20.948Z,2.90
2018-02-22T18:18:49.085Z,3.00
2018-02-22T18:21:17.979Z,2.80
2018-02-22T18:23:46.884Z,2.90
2018-02-22T18:26:15.005Z,2.90
2018-02-22T18:28:43.169Z,2.80
2018-02-22T18:31:11.896Z,2.90
2018-02-22T18:33:40.797Z,2.80
2018-02-22T18:36:08.938Z,2.80
2018-02-22T18:38:42.884Z,2.70
2018-02-22T18:41:11.418Z,2.90
2018-02-22T18:43:41.381Z,2.80
2018-02-22T18:46:09.506Z,2.70
2018-02-22T18:48:37.653Z,2.70
2018-02-22T18:51:05.764Z,2.70
2018-02-22T18:53:33.906Z,2.70
2018-02-22T18:56:02.009Z,2.60
2018-02-22T18:58:30.163Z,2.50
2018-02-22T19:00:58.265Z,2.50
2018-02-22T19:03:26.404Z,2.60
2018-02-22T19:05:54.521Z,2.60
2018-02-22T19:08:23.429Z,2.40
2018-02-22T19:10:51.548Z,2.40
2018-02-22T19:13:19.705Z,2.30
2018-02-22T19:15:47.816Z,2.30
2018-02-22T19:18:16.044Z,2.30
2018-02-22T19:20:44.173Z,2.40
2018-02-22T19:23:12.317Z,2.30
2018-02-22T19:25:41.199Z,2.40
2018-02-22T19:28:10.173Z,2.40
2018-02-22T19:30:38.284Z,2.20
2018-02-22T19:33:06.429Z,2.10
2018-02-22T19:35:34.568Z,1.90
2018-02-22T19:38:03.470Z,2.00
2018-02-22T19:40:31.588Z,2.00
2018-02-22T19:42:59.753Z,2.00
2018-02-22T19:45:27.873Z,2.10
2018-02-22T19:47:57.140Z,2.20
2018-02-22T19:50:25.262Z,2.20
2018-02-22T19:52:53.405Z,2.10
2018-02-22T19:55:22.321Z,2.10
2018-02-22T19:57:51.222Z,2.30
2018-02-22T20:00:19.357Z,2.20
2018-02-22T20:02:47.509Z,2.10
2018-02-22T20:05:15.637Z,2.10
2018-02-22T20:07:43.773Z,2.10
2018-02-22T20:10:11.891Z,2.10
2018-02-22T20:12:40.030Z,2.20
2018-02-22T20:15:08.153Z,2.30
2018-02-22T20:17:36.288Z,2.00
2018-02-22T20:20:05.174Z,2.30
2018-02-22T20:22:34.091Z,2.20
2018-02-22T20:25:02.205Z,2.10
2018-02-22T20:27:30.349Z,2.10
2018-02-22T20:29:58.472Z,2.20
2018-02-22T20:32:26.604Z,2.30
2018-02-22T20:34:54.745Z,2.00
2018-02-22T20:37:23.632Z,2.10
2018-02-22T20:39:52.603Z,1.90
2018-02-22T20:42:20.713Z,1.90
2018-02-22T20:44:48.848Z,1.80
2018-02-22T20:47:16.964Z,1.90
2018-02-22T20:49:45.125Z,2.10
2018-02-22T20:52:16.616Z,2.20
2018-02-22T20:54:51.226Z,2.20
2018-02-22T20:57:19.359Z,2.00
2018-02-22T20:59:48.264Z,2.20
2018-02-22T21:02:16.379Z,2.20
2018-02-22T21:04:44.513Z,2.20
2018-02-22T21:07:12.625Z,2.40
2018-02-22T21:09:40.769Z,2.50
2018-02-22T21:12:08.889Z,2.50
2018-02-22T21:14:37.032Z,2.50
2018-02-22T21:17:05.155Z,2.50
2018-02-22T21:19:33.305Z,2.40
2018-02-22T21:22:01.429Z,2.30
2018-02-22T21:24:29.578Z,2.30
2018-02-22T21:26:58.472Z,2.60
2018-02-22T21:29:27.388Z,2.60
2018-02-22T21:31:55.501Z,2.60
2018-02-22T21:34:23.646Z,2.50
2018-02-22T21:36:51.761Z,2.50
2018-02-22T21:39:19.909Z,2.70
2018-02-22T21:41:48.025Z,2.60
2018-02-22T21:44:16.156Z,2.60
2018-02-22T21:46:44.282Z,2.80
2018-02-22T21:49:13.194Z,2.80
2018-02-22T21:51:41.366Z,2.80
2018-02-22T21:54:09.504Z,2.90
2018-02-22T21:56:37.635Z,2.60
2018-02-22T21:59:05.776Z,2.50
2018-02-22T22:01:33.900Z,2.70
2018-02-22T22:04:02.037Z,2.70
2018-02-22T22:06:30.150Z,2.60
2018-02-22T22:08:58.284Z,2.50
2018-02-22T22:11:26.405Z,2.40
2018-02-22T22:13:54.556Z,2.30
2018-02-22T22:16:22.669Z,2.40
2018-02-22T22:18:51.572Z,2.30
2018-02-22T22:21:20.452Z,2.20
2018-02-22T22:23:49.360Z,2.20
2018-02-22T22:26:17.492Z,2.20
2018-02-22T22:28:45.716Z,2.10
2018-02-22T22:31:13.832Z,2.00
2018-02-22T22:33:41.970Z,1.90
2018-02-22T22:36:10.077Z,1.90
2018-02-22T22:38:38.208Z,1.80
2018-02-22T22:41:06.317Z,1.80
2018-02-22T22:43:34.457Z,2.00
2018-02-22T22:46:02.568Z,2.10
2018-02-22T22:48:30.710Z,2.10
2018-02-22T22:50:58.828Z,1.80
2018-02-22T22:53:26.977Z,1.70
2018-02-22T22:55:55.090Z,1.90
2018-02-22T22:58:23.232Z,1.90
2018-02-22T23:00:51.348Z,1.80
2018-02-22T23:03:20.261Z,1.90
2018-02-22T23:05:48.373Z,1.90
2018-02-22T23:08:16.501Z,1.90
2018-02-22T23:10:44.647Z,2.00
2018-02-22T23:13:12.760Z,2.10
2018-02-22T23:15:40.904Z,2.20
2018-02-22T23:18:09.783Z,2.10
2018-02-22T23:20:37.928Z,2.10
2018-02-22T23:23:06.049Z,2.00
2018-02-22T23:25:34.954Z,1.90
2018-02-22T23:28:03.065Z,1.90
2018-02-22T23:30:31.201Z,2.00
2018-02-22T23:32:59.317Z,2.00
2018-02-22T23:35:27.448Z,1.90
2018-02-22T23:37:56.169Z,1.90
2018-02-22T23:40:24.314Z,2.00
2018-02-22T23:42:52.420Z,2.00
2018-02-22T23:45:20.565Z,2.00
2018-02-22T23:47:48.695Z,2.00
2018-02-22T23:50:16.837Z,2.10
2018-02-22T23:52:44.952Z,2.00
2018-02-22T23:55:13.856Z,1.90
2018-02-22T23:57:41.969Z,1.90
